首页
METAR-TAF:

METAR-TAF

机场 :

安尼斯敦, 阿拉巴马州, 美国

纬度: 33-35-26N, 经度: 085-50-51W, 海拔: 186米

当前天气观测

该预报发布于50分钟前的22:53 UTC
静风
温度 22°C
湿度 53%
气压 1019 hPa
能見度: 16.1公里
少量云层高于7000英尺

METAR: KANB 142253Z AUTO 00000KT 10SM FEW070 22/12 A3008 RMK AO2 SLP183 T02220117

时间: 18:43 (23:43 UTC)

预报

该预报发布于6小时和18分钟前的17:25 UTC
预报有效从14日的 18点(UTC)到 15日的 18点(UTC)
风速3节,风向多变
能見度: 10公里
阴天层高于5000英尺
从 14日的 2100点(UTC)
风速节,风向
能見度: 10公里
多云层高于25000英尺
从 15日的 1300点(UTC)
风速5节,风向
能見度: 6.4公里
阴天层高于2500英尺
小雨, 轻雾

TAF: KANB 141725Z 1418/1518 VRB03KT P6SM OVC050 FM142100 00000KT P6SM BKN250 FM151300 10005KT 4SM -RA BR OVC025

超过4000个机场的气象观测和天气预报(METAR&TAF报告)。

可查询的气象台以黄色和红色小点在地图上表示。

将鼠标移到小点上方,可查看气象台名称。

然后点击查看天气观测和预报。

如需切换地图:点击带黑十字的绿色按钮放大地图;点击带横线的绿色按钮缩小地图;或者点击绿色箭头查看邻近地区的地图。


METAR-TAF: